createdAt,value
2018-12-30T00:02:14.165Z,2.73
2018-12-30T00:04:42.318Z,3.27
2018-12-30T00:07:10.985Z,3.20
2018-12-30T00:09:39.633Z,2.90
2018-12-30T00:12:07.772Z,3.30
2018-12-30T00:14:35.946Z,3.30
2018-12-30T00:17:04.393Z,3.13
2018-12-30T00:19:42.390Z,3.80
2018-12-30T00:22:02.355Z,3.77
2018-12-30T00:24:30.793Z,3.00
2018-12-30T00:26:58.935Z,3.23
2018-12-30T00:29:27.550Z,2.90
2018-12-30T00:31:55.715Z,4.07
2018-12-30T00:34:23.837Z,3.33
2018-12-30T00:36:52.013Z,3.30
2018-12-30T00:39:22.967Z,2.87
2018-12-30T00:41:51.105Z,3.47
2018-12-30T00:44:19.286Z,4.10
2018-12-30T00:46:47.438Z,3.43
2018-12-30T00:49:15.576Z,3.10
2018-12-30T00:51:45.191Z,2.83
2018-12-30T00:54:13.338Z,3.00
2018-12-30T00:56:41.487Z,3.10
2018-12-30T00:59:09.775Z,3.03
2018-12-30T01:01:37.964Z,2.80
2018-12-30T01:04:06.105Z,3.00
2018-12-30T01:06:34.837Z,2.57
2018-12-30T01:09:03.148Z,3.00
2018-12-30T01:11:31.290Z,2.60
2018-12-30T01:13:59.486Z,2.93
2018-12-30T01:16:27.620Z,3.07
2018-12-30T01:18:55.762Z,2.50
2018-12-30T01:21:25.204Z,2.57
2018-12-30T01:23:53.785Z,3.87
2018-12-30T01:26:21.925Z,3.33
2018-12-30T01:28:50.561Z,3.23
2018-12-30T01:31:18.703Z,2.57
2018-12-30T01:33:46.841Z,2.43
2018-12-30T01:36:15.393Z,2.47
2018-12-30T01:38:43.533Z,2.73
2018-12-30T01:41:11.674Z,3.10
2018-12-30T01:43:39.844Z,2.17
2018-12-30T01:46:07.982Z,3.10
2018-12-30T01:48:37.493Z,2.13
2018-12-30T01:51:05.703Z,2.00
2018-12-30T01:53:33.813Z,2.37
2018-12-30T01:56:01.949Z,2.50
2018-12-30T01:58:30.113Z,3.30
2018-12-30T02:00:58.261Z,2.60
2018-12-30T02:03:26.401Z,2.20
2018-12-30T02:05:54.577Z,1.83
2018-12-30T02:08:22.721Z,2.00
2018-12-30T02:10:50.992Z,1.70
2018-12-30T02:13:19.471Z,2.30
2018-12-30T02:15:47.613Z,2.57
2018-12-30T02:18:15.753Z,2.87
2018-12-30T02:20:43.924Z,2.33
2018-12-30T02:23:12.068Z,2.13
2018-12-30T02:25:40.215Z,2.30
2018-12-30T02:28:09.157Z,2.40
2018-12-30T02:30:38.809Z,2.03
2018-12-30T02:33:06.953Z,1.97
2018-12-30T02:35:35.500Z,2.33
2018-12-30T02:38:03.645Z,2.50
2018-12-30T02:40:32.286Z,2.07
2018-12-30T02:43:00.602Z,2.40
2018-12-30T02:45:28.737Z,2.40
2018-12-30T02:47:56.921Z,2.67
2018-12-30T02:50:25.062Z,1.80
2018-12-30T02:52:53.225Z,3.43
2018-12-30T02:55:21.365Z,2.83
2018-12-30T02:57:49.553Z,2.40
2018-12-30T03:00:17.702Z,2.10
2018-12-30T03:02:45.844Z,1.83
2018-12-30T03:05:14.023Z,2.17
2018-12-30T03:07:42.169Z,2.30
2018-12-30T03:10:10.310Z,2.77
2018-12-30T03:12:38.484Z,2.27
2018-12-30T03:15:06.637Z,2.20
2018-12-30T03:17:34.777Z,2.17
2018-12-30T03:20:02.946Z,2.30
2018-12-30T03:22:31.098Z,1.97
2018-12-30T03:24:59.245Z,1.80
2018-12-30T03:27:27.500Z,2.70
2018-12-30T03:29:55.652Z,2.63
2018-12-30T03:32:23.803Z,2.70
2018-12-30T03:34:51.973Z,2.80
2018-12-30T03:37:20.125Z,2.93
2018-12-30T03:39:48.261Z,2.20
2018-12-30T03:42:16.449Z,3.00
2018-12-30T03:44:44.590Z,2.43
2018-12-30T03:47:12.733Z,2.83
2018-12-30T03:49:40.904Z,2.50
2018-12-30T03:52:10.414Z,2.23
2018-12-30T03:54:38.558Z,2.30
2018-12-30T03:57:06.747Z,2.30
2018-12-30T03:59:34.867Z,2.23
2018-12-30T04:02:03.008Z,2.23
2018-12-30T04:04:31.854Z,2.17
2018-12-30T04:07:00.266Z,2.70
2018-12-30T04:09:28.412Z,2.70
2018-12-30T04:11:56.587Z,2.57
2018-12-30T04:14:24.726Z,2.40
2018-12-30T04:16:52.874Z,2.90
2018-12-30T04:19:21.044Z,3.23
2018-12-30T04:21:49.182Z,2.10
2018-12-30T04:24:17.321Z,2.93
2018-12-30T04:26:45.497Z,2.30
2018-12-30T04:29:13.642Z,2.13
2018-12-30T04:31:41.786Z,2.13
2018-12-30T04:34:11.001Z,2.53
2018-12-30T04:36:39.146Z,2.03
2018-12-30T04:39:07.955Z,2.13
2018-12-30T04:41:36.129Z,2.37
2018-12-30T04:44:04.295Z,3.00
2018-12-30T04:46:32.424Z,2.70
2018-12-30T04:49:00.599Z,2.50
2018-12-30T04:51:28.742Z,2.40
2018-12-30T04:53:56.894Z,2.40
2018-12-30T04:56:25.065Z,2.37
2018-12-30T04:58:53.206Z,2.40
2018-12-30T05:01:21.349Z,2.17
2018-12-30T05:03:49.913Z,2.23
2018-12-30T05:06:18.057Z,2.30
2018-12-30T05:08:46.200Z,2.40
2018-12-30T05:11:14.840Z,2.87
2018-12-30T05:13:42.985Z,2.87
2018-12-30T05:16:11.129Z,3.67
2018-12-30T05:18:39.298Z,3.17
2018-12-30T05:21:07.443Z,2.43
2018-12-30T05:23:35.584Z,3.10
2018-12-30T05:26:03.761Z,2.87
2018-12-30T05:28:31.906Z,2.60
2018-12-30T05:31:00.057Z,2.60
2018-12-30T05:33:28.219Z,3.23
2018-12-30T05:35:56.365Z,2.60
2018-12-30T05:38:24.501Z,2.67
2018-12-30T05:40:52.671Z,2.50
2018-12-30T05:43:20.816Z,2.47
2018-12-30T05:45:48.969Z,2.60
2018-12-30T05:48:17.146Z,2.37
2018-12-30T05:50:45.281Z,2.80
2018-12-30T05:53:13.421Z,3.20
2018-12-30T05:55:41.592Z,2.60
2018-12-30T05:58:09.743Z,2.30
2018-12-30T06:00:39.341Z,2.70
2018-12-30T06:03:07.527Z,3.20
2018-12-30T06:05:35.681Z,3.00
2018-12-30T06:08:03.836Z,2.60
2018-12-30T06:10:32.417Z,3.52
2018-12-30T06:13:00.557Z,3.57
2018-12-30T06:15:28.708Z,3.17
2018-12-30T06:17:56.877Z,2.60
2018-12-30T06:20:25.025Z,2.93
2018-12-30T06:22:53.173Z,2.93
2018-12-30T06:25:21.348Z,2.57
2018-12-30T06:27:49.506Z,2.50
2018-12-30T06:30:17.649Z,3.17
2018-12-30T06:32:45.821Z,2.80
2018-12-30T06:35:13.961Z,2.37
2018-12-30T06:37:42.465Z,3.33
2018-12-30T06:40:11.749Z,2.47
2018-12-30T06:42:39.941Z,1.87
2018-12-30T06:45:08.136Z,2.97
2018-12-30T06:47:36.313Z,2.73
2018-12-30T06:50:05.225Z,2.53
2018-12-30T06:52:35.072Z,2.77
2018-12-30T06:55:03.177Z,2.90
2018-12-30T06:57:31.325Z,2.73
2018-12-30T06:59:59.471Z,2.80
2018-12-30T07:02:27.639Z,3.00
2018-12-30T07:04:55.777Z,3.10
2018-12-30T07:07:24.217Z,2.90
2018-12-30T07:09:52.737Z,3.10
2018-12-30T07:12:20.873Z,2.43
2018-12-30T07:14:49.148Z,2.90
2018-12-30T07:17:17.323Z,3.23
2018-12-30T07:19:45.472Z,3.20
2018-12-30T07:22:13.604Z,4.30
2018-12-30T07:24:41.901Z,2.40
2018-12-30T07:27:10.075Z,3.13
2018-12-30T07:29:38.213Z,2.23
2018-12-30T07:32:06.381Z,2.90
2018-12-30T07:34:34.520Z,3.27
2018-12-30T07:37:02.665Z,3.83
2018-12-30T07:39:30.845Z,3.63
2018-12-30T07:41:58.990Z,2.80
2018-12-30T07:44:27.134Z,3.80
2018-12-30T07:46:55.302Z,3.47
2018-12-30T07:49:23.441Z,2.70
2018-12-30T07:51:51.585Z,3.63
2018-12-30T07:54:19.769Z,4.10
2018-12-30T07:56:47.919Z,3.53
2018-12-30T07:59:16.057Z,2.90
2018-12-30T08:01:44.221Z,3.83
2018-12-30T08:04:12.381Z,2.87
2018-12-30T08:06:40.513Z,2.80
2018-12-30T08:09:08.682Z,3.33
2018-12-30T08:11:36.840Z,3.23
2018-12-30T08:14:04.976Z,2.43
2018-12-30T08:16:33.489Z,2.40
2018-12-30T08:19:01.641Z,2.60
2018-12-30T08:21:29.791Z,2.77
2018-12-30T08:23:58.557Z,3.07
2018-12-30T08:26:26.707Z,2.63
2018-12-30T08:28:54.845Z,2.57
2018-12-30T08:31:23.039Z,2.90
2018-12-30T08:33:51.177Z,3.00
2018-12-30T08:36:19.321Z,3.17
2018-12-30T08:38:47.501Z,2.87
2018-12-30T08:41:15.649Z,3.80
2018-12-30T08:43:43.806Z,2.53
2018-12-30T08:46:33.134Z,2.90
2018-12-30T08:49:01.308Z,3.17
2018-12-30T08:51:29.453Z,2.70
2018-12-30T08:53:57.613Z,3.17
2018-12-30T08:56:25.758Z,2.83
2018-12-30T08:58:53.905Z,2.83
2018-12-30T09:01:28.485Z,2.40
2018-12-30T09:03:51.861Z,2.70
2018-12-30T09:06:20.124Z,2.50
2018-12-30T09:08:48.309Z,2.83
2018-12-30T09:11:16.455Z,2.70
2018-12-30T09:13:44.589Z,2.63
2018-12-30T09:16:12.762Z,2.63
2018-12-30T09:18:41.577Z,2.90
2018-12-30T09:21:09.719Z,2.17
2018-12-30T09:23:37.903Z,2.57
2018-12-30T09:26:06.045Z,1.93
2018-12-30T09:28:35.445Z,2.20
2018-12-30T09:31:03.621Z,2.73
2018-12-30T09:33:31.757Z,2.43
2018-12-30T09:35:59.897Z,2.30
2018-12-30T09:38:28.073Z,2.57
2018-12-30T09:40:56.229Z,2.90
2018-12-30T09:43:24.376Z,2.73
2018-12-30T09:45:52.546Z,2.50
2018-12-30T09:48:20.689Z,2.90
2018-12-30T09:50:48.829Z,3.37
2018-12-30T09:53:17.014Z,3.00
2018-12-30T09:55:45.154Z,2.90
2018-12-30T09:58:13.293Z,2.53
2018-12-30T10:00:41.466Z,3.93
2018-12-30T10:03:09.618Z,3.13
2018-12-30T10:05:37.791Z,2.67
2018-12-30T10:08:05.927Z,2.30
2018-12-30T10:10:34.067Z,2.70
2018-12-30T10:13:02.213Z,3.13
2018-12-30T10:15:30.389Z,2.37
2018-12-30T10:17:58.521Z,2.93
2018-12-30T10:20:26.661Z,2.60
2018-12-30T10:22:58.765Z,2.40
2018-12-30T10:25:25.126Z,2.73
2018-12-30T10:27:53.273Z,2.73
2018-12-30T10:30:21.445Z,3.00
2018-12-30T10:32:49.595Z,2.97
2018-12-30T10:35:17.749Z,3.67
2018-12-30T10:37:46.405Z,3.37
2018-12-30T10:40:14.550Z,2.70
2018-12-30T10:42:42.688Z,3.50
2018-12-30T10:45:10.865Z,3.20
2018-12-30T10:47:39.029Z,3.80
2018-12-30T10:50:07.174Z,3.07
2018-12-30T10:52:35.654Z,3.40
2018-12-30T10:55:03.798Z,4.13
2018-12-30T10:57:31.937Z,3.20
2018-12-30T11:00:00.157Z,3.37
2018-12-30T11:02:28.245Z,3.10
2018-12-30T11:04:56.402Z,3.87
2018-12-30T11:07:24.560Z,3.73
2018-12-30T11:09:52.701Z,4.20
2018-12-30T11:12:20.841Z,3.53
2018-12-30T11:14:49.017Z,3.37
2018-12-30T11:17:17.247Z,3.50
2018-12-30T11:19:45.386Z,3.53
2018-12-30T11:22:13.845Z,3.73
2018-12-30T11:24:43.486Z,3.30
2018-12-30T11:27:11.614Z,3.63
2018-12-30T11:29:39.785Z,3.80
2018-12-30T11:32:07.931Z,3.90
2018-12-30T11:34:38.167Z,4.53
2018-12-30T11:37:06.341Z,4.40
2018-12-30T11:39:34.484Z,4.20
2018-12-30T11:42:02.643Z,4.47
2018-12-30T11:44:30.806Z,4.97
2018-12-30T11:46:58.951Z,4.67
2018-12-30T11:49:27.101Z,4.57
2018-12-30T11:51:55.283Z,4.47
2018-12-30T11:54:23.421Z,4.93
2018-12-30T11:56:51.633Z,5.03
2018-12-30T11:59:19.741Z,4.27
2018-12-30T12:01:47.876Z,4.20
2018-12-30T12:04:16.021Z,4.33
2018-12-30T12:06:44.537Z,5.10
2018-12-30T12:09:12.688Z,5.03
2018-12-30T12:11:40.824Z,4.43
2018-12-30T12:14:09.503Z,5.43
2018-12-30T12:16:37.635Z,3.80
2018-12-30T12:19:05.780Z,4.80
2018-12-30T12:21:33.962Z,4.67
2018-12-30T12:24:02.113Z,4.47
2018-12-30T12:26:31.467Z,4.63
2018-12-30T12:28:59.741Z,4.60
2018-12-30T12:31:27.881Z,5.13
2018-12-30T12:33:56.027Z,4.73
2018-12-30T12:36:24.190Z,5.37
2018-12-30T12:38:52.341Z,4.67
2018-12-30T12:41:20.482Z,5.63
2018-12-30T12:43:48.677Z,3.80
2018-12-30T12:46:16.821Z,5.20
2018-12-30T12:48:44.973Z,6.03
2018-12-30T12:51:13.141Z,4.60
2018-12-30T12:53:41.282Z,5.13
2018-12-30T12:56:09.698Z,5.03
2018-12-30T12:58:39.105Z,4.73
2018-12-30T13:01:07.253Z,5.37
2018-12-30T13:03:35.405Z,5.77
2018-12-30T13:06:05.416Z,6.37
2018-12-30T13:08:33.529Z,5.97
2018-12-30T13:11:01.685Z,5.80
2018-12-30T13:13:29.880Z,6.67
2018-12-30T13:16:03.321Z,5.90
2018-12-30T13:18:27.822Z,6.90
2018-12-30T13:20:55.989Z,6.87
2018-12-30T13:23:24.160Z,5.93
2018-12-30T13:25:52.298Z,6.77
2018-12-30T13:28:20.486Z,7.13
2018-12-30T13:30:48.626Z,7.00
2018-12-30T13:33:16.773Z,6.97
2018-12-30T13:35:44.942Z,6.73
2018-12-30T13:38:13.097Z,7.57
2018-12-30T13:40:41.774Z,6.13
2018-12-30T13:43:10.523Z,7.17
2018-12-30T13:45:39.071Z,7.30
2018-12-30T13:48:07.217Z,6.53
2018-12-30T13:50:35.384Z,7.17
2018-12-30T13:53:03.541Z,7.00
2018-12-30T13:55:31.673Z,7.33
2018-12-30T13:58:00.904Z,6.87
2018-12-30T14:00:29.042Z,7.00
2018-12-30T14:02:58.825Z,6.73
2018-12-30T14:05:27.006Z,7.60
2018-12-30T14:07:55.149Z,8.63
2018-12-30T14:10:23.301Z,7.80
2018-12-30T14:12:51.691Z,8.60
2018-12-30T14:15:19.845Z,8.73
2018-12-30T14:17:47.976Z,8.47
2018-12-30T14:20:16.290Z,10.53
2018-12-30T14:22:44.454Z,13.38
2018-12-30T14:25:12.599Z,10.53
2018-12-30T14:27:40.786Z,12.43
2018-12-30T14:30:08.937Z,11.97
2018-12-30T14:32:37.073Z,12.23
2018-12-30T14:35:05.249Z,13.33
2018-12-30T14:37:33.398Z,12.23
2018-12-30T14:40:01.542Z,13.00
2018-12-30T14:42:29.713Z,12.50
2018-12-30T14:44:57.858Z,12.57
2018-12-30T14:47:26.009Z,11.23
2018-12-30T14:49:54.185Z,11.07
2018-12-30T14:52:22.342Z,11.13
2018-12-30T14:54:50.476Z,10.20
2018-12-30T14:57:18.665Z,8.77
2018-12-30T14:59:46.817Z,7.60
2018-12-30T15:02:14.954Z,7.37
2018-12-30T15:04:44.305Z,7.40
2018-12-30T15:07:12.443Z,6.93
2018-12-30T15:09:40.581Z,6.80
2018-12-30T15:12:08.872Z,6.83
2018-12-30T15:14:37.002Z,7.60
2018-12-30T15:17:05.145Z,11.60
2018-12-30T15:19:33.325Z,16.53
2018-12-30T15:22:01.461Z,16.87
2018-12-30T15:24:29.616Z,15.63
2018-12-30T15:26:57.786Z,18.50
2018-12-30T15:29:25.923Z,12.90
2018-12-30T15:31:54.068Z,15.57
2018-12-30T15:34:22.253Z,16.20
2018-12-30T15:36:50.469Z,15.13
2018-12-30T15:39:18.626Z,14.93
2018-12-30T15:41:47.189Z,16.70
2018-12-30T15:44:17.346Z,18.73
2018-12-30T15:46:45.501Z,17.57
2018-12-30T15:49:13.677Z,18.60
2018-12-30T15:51:41.824Z,22.07
2018-12-30T15:54:09.973Z,19.40
2018-12-30T15:56:38.686Z,20.77
2018-12-30T15:59:06.830Z,23.90
2018-12-30T16:01:34.975Z,21.57
2018-12-30T16:04:03.149Z,21.20
2018-12-30T16:06:31.305Z,19.77
2018-12-30T16:08:59.457Z,19.60
2018-12-30T16:11:27.635Z,17.83
2018-12-30T16:13:55.777Z,16.57
2018-12-30T16:16:23.939Z,17.47
2018-12-30T16:18:52.559Z,17.57
2018-12-30T16:21:21.015Z,17.00
2018-12-30T16:23:49.161Z,15.40
2018-12-30T16:26:17.346Z,18.60
2018-12-30T16:28:45.489Z,17.00
2018-12-30T16:31:13.634Z,18.57
2018-12-30T16:33:41.811Z,16.37
2018-12-30T16:36:09.962Z,17.07
2018-12-30T16:38:38.115Z,24.97
2018-12-30T16:41:06.310Z,35.27
2018-12-30T16:43:34.450Z,24.23
2018-12-30T16:46:02.589Z,18.93
2018-12-30T16:48:31.273Z,18.17
2018-12-30T16:50:59.418Z,19.67
2018-12-30T16:53:27.561Z,21.47
2018-12-30T16:55:56.103Z,19.17
2018-12-30T16:58:24.240Z,20.77
2018-12-30T17:00:53.590Z,18.60
2018-12-30T17:03:21.777Z,19.73
2018-12-30T17:05:49.922Z,22.60
2018-12-30T17:08:18.085Z,28.10
2018-12-30T17:10:46.257Z,21.10
2018-12-30T17:13:14.398Z,23.03
2018-12-30T17:15:42.544Z,18.23
2018-12-30T17:18:10.717Z,20.83
2018-12-30T17:20:38.861Z,18.30
2018-12-30T17:23:07.937Z,16.90
2018-12-30T17:25:42.878Z,16.33
2018-12-30T17:28:05.899Z,17.83
2018-12-30T17:30:34.046Z,21.83
2018-12-30T17:33:02.241Z,17.70
2018-12-30T17:35:30.359Z,16.60
2018-12-30T17:37:58.505Z,22.17
2018-12-30T17:40:26.693Z,19.50
2018-12-30T17:42:54.844Z,17.97
2018-12-30T17:45:22.999Z,18.37
2018-12-30T17:47:51.204Z,17.10
2018-12-30T17:50:19.349Z,17.93
2018-12-30T17:52:47.489Z,18.47
2018-12-30T17:55:15.664Z,17.73
2018-12-30T17:57:43.809Z,17.90
2018-12-30T18:00:11.954Z,18.97
2018-12-30T18:02:40.137Z,22.10
2018-12-30T18:05:08.273Z,23.17
2018-12-30T18:07:36.429Z,34.50
2018-12-30T18:10:05.188Z,25.83
2018-12-30T18:12:33.328Z,26.97
2018-12-30T18:15:01.483Z,24.43
2018-12-30T18:17:29.656Z,30.60
2018-12-30T18:19:57.797Z,37.33
2018-12-30T18:22:25.957Z,27.77
2018-12-30T18:24:54.131Z,21.00
2018-12-30T18:27:22.274Z,21.83
2018-12-30T18:29:50.721Z,22.13
2018-12-30T18:32:19.172Z,22.47
2018-12-30T18:34:47.305Z,20.23
2018-12-30T18:37:15.450Z,22.00
2018-12-30T18:39:44.025Z,19.63
2018-12-30T18:42:12.196Z,18.33
2018-12-30T18:44:41.848Z,19.13
2018-12-30T18:47:10.018Z,18.63
2018-12-30T18:49:38.164Z,18.93
2018-12-30T18:52:06.314Z,20.27
2018-12-30T18:54:34.481Z,19.67
2018-12-30T18:57:02.627Z,19.23
2018-12-30T18:59:30.780Z,19.17
2018-12-30T19:01:58.949Z,19.37
2018-12-30T19:04:27.097Z,18.43
2018-12-30T19:06:55.254Z,18.67
2018-12-30T19:09:23.426Z,19.07
2018-12-30T19:11:51.573Z,18.27
2018-12-30T19:14:19.737Z,18.83
2018-12-30T19:16:47.905Z,18.83
2018-12-30T19:19:16.059Z,18.37
2018-12-30T19:21:44.209Z,18.30
2018-12-30T19:24:12.386Z,17.90
2018-12-30T19:26:40.533Z,18.87
2018-12-30T19:29:08.949Z,18.00
2018-12-30T19:31:37.126Z,18.10
2018-12-30T19:34:05.266Z,18.00
2018-12-30T19:36:33.414Z,18.03
2018-12-30T19:39:01.610Z,18.83
2018-12-30T19:41:29.754Z,18.87
2018-12-30T19:43:57.901Z,19.33
2018-12-30T19:46:26.074Z,19.13
2018-12-30T19:48:54.217Z,20.27
2018-12-30T19:51:22.383Z,22.03
2018-12-30T19:53:50.583Z,31.60
2018-12-30T19:56:22.019Z,48.50
2018-12-30T19:58:50.156Z,25.47
2018-12-30T20:01:18.340Z,26.40
2018-12-30T20:03:46.480Z,21.23
2018-12-30T20:06:14.634Z,20.77
2018-12-30T20:08:45.117Z,21.73
2018-12-30T20:11:13.253Z,25.83
2018-12-30T20:13:41.433Z,26.63
2018-12-30T20:16:09.601Z,31.17
2018-12-30T20:18:37.745Z,25.53
2018-12-30T20:21:05.913Z,33.23
2018-12-30T20:23:34.066Z,28.03
2018-12-30T20:26:02.469Z,24.33
2018-12-30T20:28:30.613Z,22.83
2018-12-30T20:30:58.787Z,27.17
2018-12-30T20:33:26.929Z,31.50
2018-12-30T20:35:55.079Z,28.43
2018-12-30T20:38:23.245Z,23.07
2018-12-30T20:40:51.403Z,21.60
2018-12-30T20:43:19.668Z,22.73
2018-12-30T20:45:47.843Z,22.47
2018-12-30T20:48:15.989Z,22.33
2018-12-30T20:50:46.706Z,23.53
2018-12-30T20:53:15.201Z,22.70
2018-12-30T20:55:43.350Z,21.27
2018-12-30T20:58:13.022Z,20.63
2018-12-30T21:00:41.194Z,20.73
2018-12-30T21:03:09.341Z,20.67
2018-12-30T21:05:37.490Z,21.97
2018-12-30T21:08:05.933Z,21.73
2018-12-30T21:10:34.110Z,21.93
2018-12-30T21:13:02.253Z,21.03
2018-12-30T21:15:31.290Z,24.33
2018-12-30T21:17:59.438Z,22.20
2018-12-30T21:20:27.592Z,20.63
2018-12-30T21:22:56.013Z,20.17
2018-12-30T21:25:24.153Z,21.13
2018-12-30T21:27:52.298Z,19.07
2018-12-30T21:30:20.473Z,18.47
2018-12-30T21:32:48.618Z,20.03
2018-12-30T21:35:16.771Z,18.83
2018-12-30T21:37:45.203Z,18.77
2018-12-30T21:40:13.477Z,18.17
2018-12-30T21:42:43.871Z,18.00
2018-12-30T21:45:11.432Z,19.13
2018-12-30T21:47:40.805Z,18.53
2018-12-30T21:50:08.953Z,18.50
2018-12-30T21:52:37.377Z,18.47
2018-12-30T21:55:05.544Z,18.33
2018-12-30T21:57:33.699Z,18.23
2018-12-30T22:00:01.866Z,19.77
2018-12-30T22:02:30.014Z,18.00
2018-12-30T22:04:58.164Z,17.67
2018-12-30T22:07:26.350Z,18.07
2018-12-30T22:09:54.629Z,18.07
2018-12-30T22:12:22.771Z,17.20
2018-12-30T22:14:51.430Z,17.03
2018-12-30T22:17:19.570Z,15.90
2018-12-30T22:19:47.721Z,16.53
2018-12-30T22:22:15.910Z,15.80
2018-12-30T22:24:44.081Z,15.43
2018-12-30T22:27:13.017Z,15.20
2018-12-30T22:29:41.225Z,15.63
2018-12-30T22:32:09.361Z,15.60
2018-12-30T22:34:37.505Z,17.17
2018-12-30T22:37:05.691Z,16.70
2018-12-30T22:39:33.839Z,17.30
2018-12-30T22:42:01.985Z,17.70
2018-12-30T22:44:30.174Z,17.17
2018-12-30T22:46:58.318Z,18.23
2018-12-30T22:49:26.465Z,19.53
2018-12-30T22:51:54.651Z,19.17
2018-12-30T22:54:22.793Z,18.53
2018-12-30T22:56:50.961Z,21.37
2018-12-30T22:59:19.133Z,20.07
2018-12-30T23:01:47.291Z,18.50
2018-12-30T23:04:15.437Z,21.27
2018-12-30T23:06:43.607Z,21.47
2018-12-30T23:09:11.750Z,20.33
2018-12-30T23:11:39.893Z,20.10
2018-12-30T23:14:08.057Z,20.47
2018-12-30T23:16:36.201Z,20.40
2018-12-30T23:19:04.337Z,21.37
2018-12-30T23:21:32.519Z,21.00
2018-12-30T23:24:00.666Z,22.20
2018-12-30T23:26:28.808Z,25.23
2018-12-30T23:28:56.977Z,23.53
2018-12-30T23:31:25.132Z,23.70
2018-12-30T23:33:53.272Z,24.60
2018-12-30T23:36:21.569Z,22.90
2018-12-30T23:38:49.705Z,23.17
2018-12-30T23:41:17.854Z,23.57
2018-12-30T23:43:46.349Z,22.53
2018-12-30T23:46:14.493Z,22.80
2018-12-30T23:48:42.649Z,22.43
2018-12-30T23:51:10.830Z,21.80
2018-12-30T23:53:38.973Z,21.17
2018-12-30T23:56:07.185Z,21.37
2018-12-30T23:58:35.361Z,21.20
